Time;durP1;ratioP1;P1;durP2;ratioP2;P2;SDS_P1;SDS_P2;PMS_P1;PMS_P2;Temp;Humidity;BMP_temperature;BMP_pressure;BME280_temperature;BME280_humidity;BME280_pressure;Samples;Min_cycle;Max_cycle;Signal;HPM_P1;HPM_P2
2022/08/11 00:00:08;;;;;;;;;;;13.40;99.90;;;;;;5093731;28;19915;-68
2022/08/11 00:02:39;;;;;;;;;;;13.40;99.90;;;;;;5088053;28;20058;-69
2022/08/11 00:05:11;;;;;;;;;;;13.50;99.90;;;;;;5093411;28;20302;-69
2022/08/11 00:07:51;;;;;;;;;;;13.50;99.90;;;;;;5060583;28;19920;-68
2022/08/11 00:10:19;;;;;;;;;;;13.50;99.90;;;;;;5071313;28;19908;-68
2022/08/11 00:12:54;;;;;;;;;;;13.50;99.90;;;;;;5072560;28;19923;-69
2022/08/11 00:15:21;;;;;;;;;;;13.60;99.90;;;;;;5073323;28;20382;-68
2022/08/11 00:17:48;;;;;;;;;;;13.60;99.90;;;;;;5073271;28;19913;-69
2022/08/11 00:20:15;;;;;;;;;;;13.60;99.90;;;;;;5072966;28;19909;-69
2022/08/11 00:22:43;;;;;;;;;;;13.60;99.90;;;;;;5073346;28;20321;-68
2022/08/11 00:25:10;;;;;;;;;;;13.70;99.90;;;;;;5073154;28;19912;-69
2022/08/11 00:27:38;;;;;;;;;;;13.70;99.90;;;;;;5076926;28;19909;-69
2022/08/11 00:30:05;;;;;;;;;;;13.70;99.90;;;;;;5076984;28;19909;-69
2022/08/11 00:32:32;;;;;;;;;;;13.80;99.90;;;;;;5076920;28;19916;-69
2022/08/11 00:35:00;;;;;;;;;;;13.80;99.90;;;;;;5076939;28;19908;-70
2022/08/11 00:37:28;;;;;;;;;;;13.80;99.90;;;;;;5077231;28;19915;-69
2022/08/11 00:39:56;;;;;;;;;;;13.90;99.90;;;;;;5077027;28;19978;-69
2022/08/11 00:42:45;;;;;;;;;;;13.80;99.90;;;;;;5076808;28;19962;-68
2022/08/11 00:45:30;;;;;;;;;;;13.90;99.90;;;;;;5076787;28;19920;-69
2022/08/11 00:48:15;;;;;;;;;;;13.90;99.90;;;;;;5076814;28;19915;-69
2022/08/11 00:50:46;;;;;;;;;;;13.90;99.90;;;;;;5076647;28;19915;-69
2022/08/11 00:53:28;;;;;;;;;;;13.90;99.90;;;;;;5076555;28;19916;-68
2022/08/11 00:55:57;;;;;;;;;;;14.00;99.90;;;;;;5076560;28;20335;-69
2022/08/11 00:58:44;;;;;;;;;;;14.00;99.90;;;;;;5076463;28;19960;-68
2022/08/11 01:01:17;;;;;;;;;;;13.90;99.90;;;;;;5075980;28;19951;-68
2022/08/11 01:04:02;;;;;;;;;;;13.90;99.90;;;;;;5076572;28;19908;-68
2022/08/11 01:06:49;;;;;;;;;;;14.00;99.90;;;;;;5076502;28;19908;-68
2022/08/11 01:09:24;;;;;;;;;;;14.00;99.90;;;;;;5076387;28;19908;-69
2022/08/11 01:12:09;;;;;;;;;;;14.10;99.90;;;;;;5076276;28;19966;-68
2022/08/11 01:14:45;;;;;;;;;;;14.10;99.90;;;;;;5076423;28;19916;-68
2022/08/11 01:17:26;;;;;;;;;;;14.10;99.90;;;;;;5076513;28;19951;-68
2022/08/11 01:20:32;;;;;;;;;;;14.10;99.90;;;;;;5074769;28;19909;-69
2022/08/11 01:23:21;;;;;;;;;;;14.10;99.90;;;;;;5073948;28;20350;-68
2022/08/11 01:25:57;;;;;;;;;;;14.10;99.90;;;;;;5074092;28;19932;-68
2022/08/11 01:28:27;;;;;;;;;;;14.10;99.90;;;;;;5075174;28;19909;-68
2022/08/11 01:31:09;;;;;;;;;;;14.10;99.90;;;;;;5076174;28;19955;-68
2022/08/11 01:33:54;;;;;;;;;;;14.10;99.90;;;;;;5076002;28;19959;-69
2022/08/11 01:36:24;;;;;;;;;;;14.10;99.90;;;;;;5075842;28;19962;-69
2022/08/11 01:39:08;;;;;;;;;;;14.10;99.90;;;;;;5074769;28;20421;-68
2022/08/11 01:44:41;;;;;;;;;;;14.20;99.90;;;;;;5075507;28;19925;-69
2022/08/11 01:50:15;;;;;;;;;;;14.30;99.90;;;;;;5075402;28;20259;-68
2022/08/11 01:53:07;;;;;;;;;;;14.50;99.90;;;;;;5075601;28;19917;-68
2022/08/11 01:55:48;;;;;;;;;;;14.50;99.90;;;;;;5075309;28;19988;-68
2022/08/11 01:58:20;;;;;;;;;;;14.50;99.90;;;;;;5075305;28;19947;-68
2022/08/11 02:00:54;;;;;;;;;;;14.50;99.90;;;;;;5075370;28;19912;-68
2022/08/11 02:03:29;;;;;;;;;;;14.60;99.90;;;;;;5075298;28;20363;-68
2022/08/11 02:09:07;;;;;;;;;;;14.70;99.90;;;;;;5075365;28;19915;-68
2022/08/11 02:11:36;;;;;;;;;;;14.70;99.90;;;;;;5075234;28;20405;-68
2022/08/11 02:14:05;;;;;;;;;;;14.70;99.90;;;;;;5075093;28;19913;-68
2022/08/11 02:16:38;;;;;;;;;;;14.80;99.90;;;;;;5075195;28;19909;-69
2022/08/11 02:25:20;;;;;;;;;;;15.00;99.90;;;;;;5013137;28;19909;-68
2022/08/11 02:28:01;;;;;;;;;;;15.00;99.90;;;;;;5013163;28;19960;-68
2022/08/11 02:30:32;;;;;;;;;;;15.00;99.90;;;;;;5053671;28;19917;-68
2022/08/11 02:35:56;;;;;;;;;;;15.00;99.90;;;;;;5074788;28;19915;-69
2022/08/11 02:38:23;;;;;;;;;;;15.00;99.90;;;;;;5074861;28;19915;-68
2022/08/11 02:40:50;;;;;;;;;;;14.90;99.90;;;;;;5075165;28;20017;-68
2022/08/11 02:43:23;;;;;;;;;;;14.90;99.90;;;;;;5075285;28;19996;-68
2022/08/11 02:46:08;;;;;;;;;;;14.90;99.90;;;;;;5074983;28;19931;-68
2022/08/11 02:51:37;;;;;;;;;;;15.00;99.90;;;;;;5074737;28;19924;-68
2022/08/11 02:54:06;;;;;;;;;;;14.90;99.90;;;;;;5074095;28;19995;-68
2022/08/11 02:56:51;;;;;;;;;;;15.00;99.90;;;;;;5073426;28;20218;-68
2022/08/11 03:02:10;;;;;;;;;;;15.10;99.90;;;;;;5074642;28;19931;-68
2022/08/11 03:04:39;;;;;;;;;;;15.10;99.90;;;;;;5074039;28;19908;-68
2022/08/11 03:07:13;;;;;;;;;;;15.20;99.90;;;;;;5074168;28;19931;-68
2022/08/11 03:09:43;;;;;;;;;;;15.10;99.90;;;;;;5074040;28;19913;-68
2022/08/11 03:17:52;;;;;;;;;;;15.20;99.90;;;;;;5074516;28;19975;-68
2022/08/11 03:20:23;;;;;;;;;;;15.20;99.90;;;;;;5073737;28;19909;-68
2022/08/11 03:23:07;;;;;;;;;;;15.20;99.90;;;;;;5073877;28;20028;-68
2022/08/11 03:25:53;;;;;;;;;;;15.30;99.90;;;;;;5073978;28;19935;-68
2022/08/11 03:28:28;;;;;;;;;;;15.30;99.90;;;;;;5073586;28;20296;-68
2022/08/11 03:31:07;;;;;;;;;;;15.40;99.90;;;;;;5073658;28;19909;-68
2022/08/11 03:36:46;;;;;;;;;;;15.50;99.90;;;;;;5073769;28;20409;-68
2022/08/11 03:39:13;;;;;;;;;;;15.50;99.90;;;;;;5073766;28;19909;-68
2022/08/11 03:41:53;;;;;;;;;;;15.50;99.90;;;;;;5073658;28;19917;-68
2022/08/11 03:44:28;;;;;;;;;;;15.60;99.90;;;;;;5073307;28;19960;-68
2022/08/11 03:46:58;;;;;;;;;;;15.70;99.90;;;;;;5073733;28;20363;-68
2022/08/11 03:49:47;;;;;;;;;;;15.70;99.90;;;;;;5073511;28;20378;-68
2022/08/11 03:52:32;;;;;;;;;;;15.70;99.90;;;;;;5072526;28;19913;-68
2022/08/11 03:55:14;;;;;;;;;;;15.70;99.90;;;;;;5073565;28;19962;-68
2022/08/11 03:57:59;;;;;;;;;;;15.70;99.90;;;;;;5073378;28;19914;-68
2022/08/11 04:00:44;;;;;;;;;;;15.60;99.90;;;;;;5072431;28;20353;-68
2022/08/11 04:03:29;;;;;;;;;;;15.60;99.90;;;;;;5071715;28;20318;-68
2022/08/11 04:06:14;;;;;;;;;;;15.50;99.90;;;;;;5073277;28;19934;-68
2022/08/11 04:08:47;;;;;;;;;;;15.50;99.90;;;;;;5073289;28;19951;-68
2022/08/11 04:11:14;;;;;;;;;;;15.50;99.90;;;;;;5073201;28;19909;-68
2022/08/11 04:15:58;;;;;;;;;;;15.50;99.90;;;;;;5073233;28;19912;-68
2022/08/11 04:16:45;;;;;;;;;;;15.50;99.90;;;;;;5073196;28;19909;-68
2022/08/11 04:19:30;;;;;;;;;;;15.50;99.90;;;;;;5073201;28;20305;-68
2022/08/11 04:22:03;;;;;;;;;;;15.50;99.90;;;;;;5073226;28;19987;-68
2022/08/11 04:24:39;;;;;;;;;;;15.50;99.90;;;;;;5073135;28;20058;-68
2022/08/11 04:27:23;;;;;;;;;;;15.60;99.90;;;;;;5073287;28;19909;-67
2022/08/11 04:30:07;;;;;;;;;;;15.50;99.90;;;;;;5072999;28;19919;-68
2022/08/11 04:32:40;;;;;;;;;;;15.50;99.90;;;;;;5073283;28;19923;-68
2022/08/11 04:35:24;;;;;;;;;;;15.50;99.90;;;;;;5072824;28;19909;-68
2022/08/11 04:37:54;;;;;;;;;;;15.50;99.90;;;;;;5073156;28;19909;-68
2022/08/11 04:40:24;;;;;;;;;;;15.50;99.90;;;;;;5072931;28;19966;-68
2022/08/11 04:45:53;;;;;;;;;;;15.40;99.90;;;;;;5073095;28;20279;-68
2022/08/11 05:03:06;;;;;;;;;;;15.30;99.90;;;;;;5072790;28;19916;-68
2022/08/11 05:05:45;;;;;;;;;;;15.40;99.90;;;;;;5072787;28;19916;-68
2022/08/11 05:08:30;;;;;;;;;;;15.40;99.90;;;;;;5073001;28;19915;-68
2022/08/11 05:10:59;;;;;;;;;;;15.40;99.90;;;;;;5072834;28;19995;-68
2022/08/11 05:36:42;;;;;;;;;;;15.20;99.90;;;;;;5075663;28;19947;-69
2022/08/11 05:56:20;;;;;;;;;;;15.10;99.90;;;;;;5075690;28;19915;-69
2022/08/11 05:58:52;;;;;;;;;;;15.10;99.90;;;;;;5075578;28;19916;-69
2022/08/11 06:01:23;;;;;;;;;;;15.10;99.90;;;;;;5075539;28;19913;-69
2022/08/11 06:06:40;;;;;;;;;;;15.00;99.90;;;;;;5075834;28;19916;-69
2022/08/11 06:09:08;;;;;;;;;;;15.10;99.90;;;;;;5075336;28;19933;-69
2022/08/11 06:11:39;;;;;;;;;;;15.00;99.90;;;;;;5075111;28;19935;-69
2022/08/11 06:14:06;;;;;;;;;;;15.10;99.90;;;;;;5074838;28;19912;-69
2022/08/11 06:16:34;;;;;;;;;;;15.10;99.90;;;;;;5075118;28;19996;-68
2022/08/11 06:19:01;;;;;;;;;;;15.00;99.90;;;;;;5074886;28;19916;-68
2022/08/11 06:21:28;;;;;;;;;;;15.00;99.90;;;;;;5075102;28;19909;-68
2022/08/11 06:23:55;;;;;;;;;;;15.00;99.90;;;;;;5074486;28;19915;-68
2022/08/11 06:26:22;;;;;;;;;;;15.00;99.90;;;;;;5074681;28;20286;-67
2022/08/11 06:28:49;;;;;;;;;;;15.00;99.90;;;;;;5074892;28;19908;-68
2022/08/11 06:31:22;;;;;;;;;;;15.00;99.90;;;;;;5074885;28;19962;-68
2022/08/11 06:34:01;;;;;;;;;;;15.00;99.90;;;;;;5074777;28;19931;-68
2022/08/11 06:36:27;;;;;;;;;;;15.00;99.90;;;;;;5074612;28;19962;-68
2022/08/11 06:39:09;;;;;;;;;;;15.00;99.90;;;;;;5074639;28;20274;-68
2022/08/11 06:41:48;;;;;;;;;;;14.90;99.90;;;;;;5074747;28;19909;-68
2022/08/11 06:44:18;;;;;;;;;;;14.90;99.90;;;;;;5074304;28;19920;-68
2022/08/11 06:46:50;;;;;;;;;;;14.90;99.90;;;;;;5074537;28;19912;-68
2022/08/11 06:52:07;;;;;;;;;;;14.80;99.90;;;;;;5072029;28;19923;-67
2022/08/11 06:54:43;;;;;;;;;;;14.80;99.90;;;;;;5072362;28;19912;-68
2022/08/11 07:02:51;;;;;;;;;;;14.80;99.90;;;;;;5072496;28;19920;-68
2022/08/11 07:05:25;;;;;;;;;;;14.70;99.90;;;;;;5072121;28;20003;-68
2022/08/11 07:16:18;;;;;;;;;;;14.70;99.90;;;;;;5071813;28;19915;-68
2022/08/11 07:30:07;;;;;;;;;;;14.60;99.90;;;;;;5071050;28;20030;-69
2022/08/11 07:32:38;;;;;;;;;;;14.60;99.90;;;;;;5071387;28;19924;-68
2022/08/11 07:35:05;;;;;;;;;;;14.60;99.90;;;;;;5071184;28;20019;-69
2022/08/11 07:37:32;;;;;;;;;;;14.60;99.90;;;;;;5071198;28;19935;-69
2022/08/11 07:39:59;;;;;;;;;;;14.60;99.90;;;;;;5071486;28;20326;-68
2022/08/11 07:42:28;;;;;;;;;;;14.60;99.90;;;;;;5071404;28;19978;-68
2022/08/11 07:53:10;;;;;;;;;;;14.60;99.90;;;;;;5071341;28;20061;-68
2022/08/11 07:55:37;;;;;;;;;;;14.60;99.90;;;;;;5071370;28;19948;-68
2022/08/11 08:17:51;;;;;;;;;;;14.60;99.90;;;;;;5071375;28;19959;-68
2022/08/11 08:20:21;;;;;;;;;;;14.60;99.90;;;;;;5071154;28;19963;-68
2022/08/11 08:22:56;;;;;;;;;;;14.60;99.90;;;;;;5070956;28;19920;-68
2022/08/11 08:25:27;;;;;;;;;;;14.60;99.90;;;;;;5071032;28;19912;-68
2022/08/11 08:27:57;;;;;;;;;;;14.50;99.90;;;;;;5071451;28;19919;-68
2022/08/11 08:33:11;;;;;;;;;;;14.60;99.90;;;;;;5071104;28;19967;-67
2022/08/11 08:35:38;;;;;;;;;;;14.50;99.90;;;;;;5070549;28;19944;-68
2022/08/11 08:38:05;;;;;;;;;;;14.50;99.90;;;;;;5070758;28;19915;-68
2022/08/11 08:40:32;;;;;;;;;;;14.50;99.90;;;;;;5070881;28;19943;-67
2022/08/11 08:43:02;;;;;;;;;;;14.50;99.90;;;;;;5070684;28;19916;-69
2022/08/11 08:45:33;;;;;;;;;;;14.50;99.90;;;;;;5070814;28;20370;-68
2022/08/11 08:48:02;;;;;;;;;;;14.50;99.90;;;;;;5073176;28;19916;-68
2022/08/11 08:53:20;;;;;;;;;;;14.50;99.90;;;;;;5074691;28;20434;-68
2022/08/11 08:55:49;;;;;;;;;;;14.50;99.90;;;;;;5074565;28;19934;-68
2022/08/11 08:58:18;;;;;;;;;;;14.50;99.90;;;;;;5074227;28;19912;-68
2022/08/11 09:00:46;;;;;;;;;;;14.50;99.90;;;;;;5074249;28;19919;-68
2022/08/11 09:03:13;;;;;;;;;;;14.50;99.90;;;;;;5075551;28;19943;-68
2022/08/11 09:05:40;;;;;;;;;;;14.50;99.90;;;;;;5076435;28;20058;-68
2022/08/11 09:08:07;;;;;;;;;;;14.40;99.90;;;;;;5076253;28;19943;-68
2022/08/11 09:10:35;;;;;;;;;;;14.40;99.90;;;;;;5076233;28;19961;-68
2022/08/11 09:13:04;;;;;;;;;;;14.40;99.90;;;;;;5076111;28;20066;-68
2022/08/11 09:15:31;;;;;;;;;;;14.40;99.90;;;;;;5076190;28;20042;-68
2022/08/11 09:18:04;;;;;;;;;;;14.40;99.90;;;;;;5075847;28;19909;-67
2022/08/11 09:20:33;;;;;;;;;;;14.30;99.90;;;;;;5076209;28;19909;-68
2022/08/11 09:28:33;;;;;;;;;;;14.20;99.90;;;;;;5076339;28;19966;-68
2022/08/11 09:31:00;;;;;;;;;;;14.10;99.90;;;;;;5075927;28;20129;-68
2022/08/11 09:33:28;;;;;;;;;;;14.00;99.90;;;;;;5075811;28;20377;-68
2022/08/11 09:35:54;;;;;;;;;;;13.90;99.90;;;;;;5075938;28;19915;-67
2022/08/11 09:41:08;;;;;;;;;;;13.80;99.90;;;;;;5076282;28;19915;-67
2022/08/11 09:46:31;;;;;;;;;;;13.80;99.90;;;;;;5075659;28;20317;-68
2022/08/11 09:48:59;;;;;;;;;;;13.70;99.90;;;;;;5075639;28;19916;-68
2022/08/11 09:51:30;;;;;;;;;;;13.70;99.90;;;;;;5075598;28;19909;-68
2022/08/11 09:53:59;;;;;;;;;;;13.70;99.90;;;;;;5075815;28;20025;-68
2022/08/11 09:59:10;;;;;;;;;;;13.70;99.90;;;;;;5074665;28;20370;-68
2022/08/11 10:01:45;;;;;;;;;;;13.70;99.90;;;;;;5075183;28;19908;-68
2022/08/11 10:04:17;;;;;;;;;;;13.70;99.90;;;;;;5075284;28;20359;-68
2022/08/11 10:07:04;;;;;;;;;;;13.70;99.90;;;;;;5075446;28;19908;-68
2022/08/11 10:09:49;;;;;;;;;;;13.70;99.90;;;;;;5075319;28;20415;-68
2022/08/11 10:12:34;;;;;;;;;;;13.70;99.90;;;;;;5074931;28;19916;-68
2022/08/11 10:16:03;;;;;;;;;;;13.80;99.90;;;;;;5075091;28;20278;-68
2022/08/11 10:20:49;;;;;;;;;;;13.80;99.90;;;;;;5075447;28;19916;-68
2022/08/11 10:28:47;;;;;;;;;;;13.90;99.90;;;;;;5075253;28;19915;-68
2022/08/11 10:34:02;;;;;;;;;;;13.90;99.90;;;;;;5075247;28;19962;-68
2022/08/11 10:36:33;;;;;;;;;;;13.80;99.90;;;;;;5074689;28;19908;-68
2022/08/11 10:39:00;;;;;;;;;;;13.80;99.90;;;;;;5074839;28;20418;-67
2022/08/11 10:44:13;;;;;;;;;;;13.90;99.90;;;;;;5074525;28;20373;-68
2022/08/11 10:49:26;;;;;;;;;;;13.80;99.90;;;;;;5054693;28;19962;-67
2022/08/11 11:00:14;;;;;;;;;;;13.80;99.90;;;;;;5054530;28;19920;-68
2022/08/11 11:02:44;;;;;;;;;;;13.80;99.90;;;;;;5054370;28;20031;-69
2022/08/11 11:05:20;;;;;;;;;;;13.80;99.90;;;;;;5054184;28;19951;-69
2022/08/11 11:07:52;;;;;;;;;;;13.70;99.90;;;;;;5054219;28;19909;-69
2022/08/11 11:10:20;;;;;;;;;;;13.80;99.90;;;;;;5053366;28;19913;-68
2022/08/11 11:18:19;;;;;;;;;;;13.80;99.90;;;;;;5054031;28;19916;-69
2022/08/11 11:20:49;;;;;;;;;;;13.80;99.90;;;;;;5053990;28;19909;-68
2022/08/11 11:23:22;;;;;;;;;;;13.80;99.90;;;;;;5053380;28;19913;-68
2022/08/11 11:26:05;;;;;;;;;;;13.80;99.90;;;;;;5053865;28;19908;-68
2022/08/11 11:28:47;;;;;;;;;;;13.80;99.90;;;;;;5053884;28;19909;-68
2022/08/11 11:31:33;;;;;;;;;;;13.80;99.90;;;;;;5053847;28;19915;-68
2022/08/11 11:34:12;;;;;;;;;;;13.80;99.90;;;;;;5042573;28;19921;-68
2022/08/11 11:36:44;;;;;;;;;;;13.80;99.90;;;;;;5053670;28;19917;-68
2022/08/11 11:39:11;;;;;;;;;;;13.80;99.90;;;;;;5053153;28;19920;-68
2022/08/11 11:41:38;;;;;;;;;;;13.80;99.90;;;;;;5053551;28;19909;-68
2022/08/11 11:44:05;;;;;;;;;;;13.80;99.90;;;;;;5053174;28;19921;-68
2022/08/11 11:46:32;;;;;;;;;;;13.80;99.90;;;;;;5053461;28;20059;-69
2022/08/11 11:49:05;;;;;;;;;;;13.80;99.90;;;;;;5053446;28;19979;-68
2022/08/11 11:51:32;;;;;;;;;;;13.80;99.90;;;;;;5053326;28;19909;-68
2022/08/11 11:54:02;;;;;;;;;;;13.70;99.90;;;;;;5052805;28;20359;-68
2022/08/11 11:56:29;;;;;;;;;;;13.70;99.90;;;;;;5053621;28;19999;-68
2022/08/11 12:01:42;;;;;;;;;;;13.70;99.90;;;;;;5053621;28;20016;-69
2022/08/11 12:04:10;;;;;;;;;;;13.70;99.90;;;;;;5053051;28;19951;-68
2022/08/11 12:06:37;;;;;;;;;;;13.70;99.90;;;;;;5053292;28;19916;-69
2022/08/11 12:09:04;;;;;;;;;;;13.70;99.90;;;;;;5052726;28;19909;-69
2022/08/11 12:14:18;;;;;;;;;;;13.70;99.90;;;;;;5053310;28;19962;-68
2022/08/11 12:16:45;;;;;;;;;;;13.70;99.90;;;;;;5053012;28;19915;-68
2022/08/11 12:19:13;;;;;;;;;;;13.70;99.90;;;;;;5053167;28;19909;-68
2022/08/11 12:27:20;;;;;;;;;;;13.70;99.90;;;;;;5057620;28;19916;-68
2022/08/11 12:29:54;;;;;;;;;;;13.70;99.90;;;;;;5057306;28;19915;-68
2022/08/11 12:32:23;;;;;;;;;;;13.70;99.90;;;;;;5056871;28;19921;-68
2022/08/11 12:34:50;;;;;;;;;;;13.70;99.90;;;;;;5057109;28;19908;-68
2022/08/11 12:37:22;;;;;;;;;;;13.70;99.90;;;;;;5056483;28;19915;-68
2022/08/11 12:45:30;;;;;;;;;;;13.60;99.90;;;;;;5056692;28;19986;-69
2022/08/11 12:54:21;;;;;;;;;;;13.50;99.90;;;;;;5054469;28;19927;-68
2022/08/11 13:05:11;;;;;;;;;;;13.70;99.90;;;;;;5056790;28;19916;-68
2022/08/11 13:07:39;;;;;;;;;;;13.70;99.90;;;;;;5056668;28;19932;-68
2022/08/11 13:10:07;;;;;;;;;;;13.70;99.90;;;;;;5056237;28;19909;-68
2022/08/11 13:12:46;;;;;;;;;;;13.80;99.90;;;;;;5056273;28;20312;-68
2022/08/11 13:15:18;;;;;;;;;;;13.70;99.90;;;;;;5056426;28;19908;-68
2022/08/11 13:17:47;;;;;;;;;;;13.70;99.90;;;;;;5056420;28;19916;-68
2022/08/11 13:20:18;;;;;;;;;;;13.70;99.90;;;;;;5056232;28;20026;-68
2022/08/11 13:22:48;;;;;;;;;;;13.80;99.90;;;;;;5056269;28;19959;-68
2022/08/11 13:25:16;;;;;;;;;;;13.90;99.90;;;;;;5056304;28;19909;-68
2022/08/11 13:27:44;;;;;;;;;;;13.80;99.90;;;;;;5056211;28;19913;-68
2022/08/11 13:32:56;;;;;;;;;;;13.90;99.90;;;;;;5055558;28;20274;-68
2022/08/11 13:35:24;;;;;;;;;;;13.80;99.90;;;;;;5055384;28;19920;-68
2022/08/11 13:37:50;;;;;;;;;;;13.90;99.90;;;;;;5056137;28;19913;-68
2022/08/11 13:40:19;;;;;;;;;;;13.90;99.90;;;;;;5055839;28;19909;-67
2022/08/11 13:42:46;;;;;;;;;;;13.90;99.90;;;;;;5056026;28;19959;-68
2022/08/11 13:45:13;;;;;;;;;;;13.90;99.90;;;;;;5055609;28;19924;-68
2022/08/11 13:47:41;;;;;;;;;;;13.90;99.90;;;;;;5055992;28;20350;-68
2022/08/11 13:50:08;;;;;;;;;;;13.90;99.90;;;;;;5068553;28;19912;-68
2022/08/11 13:52:38;;;;;;;;;;;13.90;99.90;;;;;;5074245;28;19920;-68
2022/08/11 13:55:06;;;;;;;;;;;13.90;99.90;;;;;;5075940;28;19970;-68
2022/08/11 13:57:33;;;;;;;;;;;13.90;99.90;;;;;;5075309;28;19908;-68
2022/08/11 14:00:09;;;;;;;;;;;13.90;99.90;;;;;;5075731;28;20413;-68
2022/08/11 14:02:39;;;;;;;;;;;13.90;99.90;;;;;;5075654;28;19910;-68
2022/08/11 14:05:10;;;;;;;;;;;13.90;99.90;;;;;;5076543;28;19909;-68
2022/08/11 14:07:44;;;;;;;;;;;13.80;99.90;;;;;;5075781;28;19909;-68
2022/08/11 14:10:12;;;;;;;;;;;13.80;99.90;;;;;;5075663;28;19908;-68
2022/08/11 14:15:28;;;;;;;;;;;13.90;99.90;;;;;;5075795;28;19954;-68
2022/08/11 14:18:02;;;;;;;;;;;13.80;99.90;;;;;;5078331;28;19915;-68
2022/08/11 14:22:05;;;;;;;;;;;13.80;99.90;;;;;;5075605;28;19909;-67
2022/08/11 14:23:16;;;;;;;;;;;13.80;99.90;;;;;;5075631;28;20007;-68
2022/08/11 14:26:22;;;;;;;;;;;13.90;99.90;;;;;;5075870;28;20359;-68
2022/08/11 14:28:32;;;;;;;;;;;13.90;99.90;;;;;;5075580;28;19952;-68
2022/08/11 14:30:59;;;;;;;;;;;13.90;99.90;;;;;;5075106;28;19909;-67
2022/08/11 14:33:26;;;;;;;;;;;13.90;99.90;;;;;;5075408;28;19920;-68
2022/08/11 14:35:53;;;;;;;;;;;13.80;99.90;;;;;;5075543;28;20355;-68
2022/08/11 14:38:20;;;;;;;;;;;13.80;99.90;;;;;;5075663;28;20363;-68
2022/08/11 14:49:05;;;;;;;;;;;13.80;99.90;;;;;;5075131;28;20343;-68
2022/08/11 14:51:32;;;;;;;;;;;13.80;99.90;;;;;;5074599;28;19912;-67
2022/08/11 14:56:44;;;;;;;;;;;13.90;99.90;;;;;;5074832;28;19948;-68
2022/08/11 14:59:12;;;;;;;;;;;13.90;99.90;;;;;;5074542;28;20338;-68
2022/08/11 15:04:24;;;;;;;;;;;14.00;99.90;;;;;;5074518;28;19954;-68
2022/08/11 15:06:51;;;;;;;;;;;14.00;99.90;;;;;;5074596;28;19912;-67
2022/08/11 15:09:18;;;;;;;;;;;14.00;99.90;;;;;;5074354;28;19947;-67
2022/08/11 15:17:14;;;;;;;;;;;14.10;99.90;;;;;;5074522;28;20247;-67
2022/08/11 15:25:12;;;;;;;;;;;14.10;99.90;;;;;;5074277;28;20274;-67
2022/08/11 15:38:59;;;;;;;;;;;13.90;99.90;;;;;;5073743;28;19921;-68
2022/08/11 15:47:02;;;;;;;;;;;13.60;99.90;;;;;;5073647;28;20019;-69
2022/08/11 15:49:30;;;;;;;;;;;13.60;99.90;;;;;;5073592;28;19935;-69
2022/08/11 15:52:15;;;;;;;;;;;13.50;99.90;;;;;;5073606;28;20374;-69
2022/08/11 15:54:42;;;;;;;;;;;13.50;99.90;;;;;;5073631;28;19909;-69
2022/08/11 16:04:09;;;;;;;;;;;13.40;99.90;;;;;;5072762;28;20363;-69
2022/08/11 16:05:21;;;;;;;;;;;13.20;99.90;;;;;;5073484;28;19913;-69
2022/08/11 16:07:49;;;;;;;;;;;13.20;99.90;;;;;;5073427;28;20344;-67
2022/08/11 16:10:20;;;;;;;;;;;13.20;99.90;;;;;;5073296;28;19909;-69
2022/08/11 16:18:20;;;;;;;;;;;13.00;99.90;;;;;;5073181;28;20332;-69
2022/08/11 16:20:50;;;;;;;;;;;13.00;99.90;;;;;;5073356;28;19909;-69
2022/08/11 16:23:17;;;;;;;;;;;13.00;99.90;;;;;;5073246;28;19909;-69
2022/08/11 16:25:45;;;;;;;;;;;13.00;99.90;;;;;;5073244;28;19995;-68
2022/08/11 16:28:12;;;;;;;;;;;13.00;99.90;;;;;;5072959;28;20338;-69
2022/08/11 16:30:41;;;;;;;;;;;13.10;99.90;;;;;;5073017;28;19908;-69
2022/08/11 16:33:09;;;;;;;;;;;13.10;99.90;;;;;;5073125;28;19924;-69
2022/08/11 16:38:34;;;;;;;;;;;13.20;99.90;;;;;;5073233;28;19935;-69
2022/08/11 16:41:11;;;;;;;;;;;13.20;99.90;;;;;;5073071;28;19913;-69
2022/08/11 16:49:25;;;;;;;;;;;13.20;99.90;;;;;;5072974;28;19915;-68
2022/08/11 16:51:52;;;;;;;;;;;13.30;99.90;;;;;;5072886;28;19909;-68
2022/08/11 16:54:19;;;;;;;;;;;13.30;99.90;;;;;;5072870;28;19912;-68
2022/08/11 16:56:48;;;;;;;;;;;13.30;99.90;;;;;;5072909;28;19908;-68
2022/08/11 16:59:28;;;;;;;;;;;13.30;99.90;;;;;;5072778;28;19908;-68
2022/08/11 17:02:12;;;;;;;;;;;13.30;99.90;;;;;;5072982;28;20256;-68
2022/08/11 17:13:09;;;;;;;;;;;13.40;99.90;;;;;;5076461;28;19924;-68
2022/08/11 17:16:09;;;;;;;;;;;13.40;99.90;;;;;;5076367;28;19909;-68
2022/08/11 17:18:45;;;;;;;;;;;13.40;99.90;;;;;;5076366;28;19961;-68
2022/08/11 17:21:15;;;;;;;;;;;13.40;99.90;;;;;;5076352;28;19908;-68
2022/08/11 17:23:50;;;;;;;;;;;13.40;99.90;;;;;;5076240;28;19931;-68
2022/08/11 17:26:19;;;;;;;;;;;13.40;99.90;;;;;;5075986;28;19962;-68
2022/08/11 17:28:50;;;;;;;;;;;13.40;99.90;;;;;;5076128;28;19915;-68
2022/08/11 17:36:50;;;;;;;;;;;13.40;99.90;;;;;;5076372;28;20386;-68
2022/08/11 17:39:16;;;;;;;;;;;13.40;99.90;;;;;;5075971;28;19908;-68
2022/08/11 17:50:02;;;;;;;;;;;13.30;99.90;;;;;;5075875;28;20325;-68
2022/08/11 18:00:46;;;;;;;;;;;13.20;99.90;;;;;;5074795;28;19919;-68
2022/08/11 18:03:28;;;;;;;;;;;13.30;99.90;;;;;;5075596;28;19908;-68
2022/08/11 18:05:55;;;;;;;;;;;13.20;99.90;;;;;;5075564;28;20040;-68
